Time;durP1;ratioP1;P1;durP2;ratioP2;P2;SDS_P1;SDS_P2;PMS_P1;PMS_P2;Temp;Humidity;BMP_temperature;BMP_pressure;BME280_temperature;BME280_humidity;BME280_pressure;Samples;Min_cycle;Max_cycle;Signal;HPM_P1;HPM_P2
2022/03/10 00:02:17;;;;;;;94.60;56.42;;;;;;;22.44;47.67;103547.31;5054602;28;20021;-60
2022/03/10 00:04:42;;;;;;;96.93;56.92;;;;;;;22.42;47.22;103546.59;5054781;28;20029;-60
2022/03/10 00:07:07;;;;;;;91.95;56.10;;;;;;;22.44;47.69;103552.81;5054756;28;20025;-60
2022/03/10 00:09:33;;;;;;;96.00;56.05;;;;;;;22.45;47.67;103549.06;5054412;28;20487;-60
2022/03/10 00:11:59;;;;;;;87.07;54.75;;;;;;;22.39;47.03;103555.09;5054813;28;20080;-60
2022/03/10 00:14:25;;;;;;;91.88;54.85;;;;;;;22.51;47.01;103545.81;5054391;28;20029;-60
2022/03/10 00:16:50;;;;;;;94.20;53.70;;;;;;;22.91;47.99;103561.50;5054250;28;20087;-60
2022/03/10 00:19:16;;;;;;;94.47;56.75;;;;;;;23.09;49.95;103559.84;5054378;28;20043;-60
2022/03/10 00:21:42;;;;;;;94.90;56.63;;;;;;;23.24;51.33;103559.47;5054410;28;20033;-60
2022/03/10 00:24:07;;;;;;;100.95;60.33;;;;;;;23.31;52.73;103563.38;5054415;28;20036;-60
2022/03/10 00:26:33;;;;;;;98.93;60.28;;;;;;;23.32;53.87;103571.47;5054216;28;20029;-60
2022/03/10 00:28:58;;;;;;;107.05;60.80;;;;;;;23.39;54.81;103566.31;5054387;28;20480;-60
2022/03/10 00:31:23;;;;;;;115.97;63.78;;;;;;;23.39;56.79;103566.31;5053954;28;20115;-60
2022/03/10 00:33:48;;;;;;;110.55;63.33;;;;;;;23.35;57.08;103571.22;5054345;28;20076;-61
2022/03/10 00:36:14;;;;;;;117.43;67.47;;;;;;;23.39;57.54;103577.31;5054134;28;20461;-60
2022/03/10 00:38:40;;;;;;;120.82;68.93;;;;;;;23.48;57.28;103586.56;5054149;28;20078;-60
2022/03/10 00:41:05;;;;;;;121.20;69.53;;;;;;;23.45;58.32;103593.22;5052846;28;20384;-61
2022/03/10 00:43:30;;;;;;;129.60;72.10;;;;;;;23.55;57.86;103596.00;5053671;28;20059;-59
2022/03/10 00:45:56;;;;;;;122.75;69.25;;;;;;;23.52;58.29;103596.28;5053687;28;20510;-59
2022/03/10 00:48:21;;;;;;;119.30;69.65;;;;;;;23.54;58.66;103592.38;5052809;28;20052;-60
2022/03/10 00:50:46;;;;;;;131.15;71.13;;;;;;;23.49;58.61;103605.66;5053980;28;20024;-59
2022/03/10 00:53:11;;;;;;;128.32;74.40;;;;;;;23.52;59.13;103604.53;5053721;28;20027;-62
2022/03/10 00:55:37;;;;;;;133.77;73.28;;;;;;;23.53;58.78;103612.63;5054016;28;20115;-59
2022/03/10 00:58:02;;;;;;;129.43;76.20;;;;;;;23.53;58.55;103607.13;5053930;28;20092;-60
2022/03/10 01:00:29;;;;;;;138.40;77.53;;;;;;;23.53;59.07;103607.13;5053604;28;20029;-59
2022/03/10 01:02:55;;;;;;;137.73;78.90;;;;;;;23.58;58.25;103603.97;5053792;28;20021;-60
2022/03/10 01:05:21;;;;;;;139.18;76.80;;;;;;;23.54;58.32;103613.47;5053226;28;20079;-59
2022/03/10 01:07:47;;;;;;;127.00;76.35;;;;;;;23.55;58.01;103609.72;5053940;28;20099;-60
2022/03/10 01:10:13;;;;;;;136.80;79.70;;;;;;;23.59;57.72;103609.34;5053455;28;20035;-61
2022/03/10 01:12:42;;;;;;;137.30;78.53;;;;;;;23.62;57.48;103611.78;5053508;28;20476;-60
2022/03/10 01:15:09;;;;;;;133.63;77.93;;;;;;;23.64;56.97;103607.03;5053265;28;20029;-60
2022/03/10 01:17:35;;;;;;;132.60;73.18;;;;;;;23.62;57.09;103611.78;5053202;28;20033;-60
2022/03/10 01:20:00;;;;;;;138.75;80.72;;;;;;;23.61;56.68;103601.81;5053452;28;20481;-59
2022/03/10 01:22:25;;;;;;;142.38;80.30;;;;;;;23.65;57.04;103605.16;5053166;28;20048;-60
2022/03/10 01:24:50;;;;;;;133.80;76.82;;;;;;;23.68;56.39;103611.25;5053379;28;20074;-60
2022/03/10 01:27:16;;;;;;;130.20;76.30;;;;;;;23.66;56.61;103602.25;5053047;28;20040;-61
2022/03/10 01:29:41;;;;;;;147.07;83.22;;;;;;;23.64;56.48;103604.28;5053035;28;20071;-60
2022/03/10 01:32:06;;;;;;;148.65;84.50;;;;;;;23.62;56.11;103599.94;5053246;28;20467;-61
2022/03/10 01:34:32;;;;;;;139.18;79.43;;;;;;;23.67;56.29;103598.50;5052979;28;20020;-59
2022/03/10 01:36:57;;;;;;;144.25;83.13;;;;;;;23.67;55.62;103598.50;5053160;28;20024;-61
2022/03/10 01:39:24;;;;;;;135.65;78.82;;;;;;;23.69;55.28;103591.00;5051415;28;20365;-60
2022/03/10 01:41:49;;;;;;;132.50;75.25;;;;;;;23.71;55.21;103588.13;5053122;28;20021;-60
2022/03/10 01:44:16;;;;;;;144.95;83.15;;;;;;;23.68;55.49;103594.78;5052539;28;20353;-60
2022/03/10 01:46:41;;;;;;;152.93;85.53;;;;;;;23.68;54.86;103588.38;5033188;28;20039;-60
2022/03/10 01:49:07;;;;;;;146.52;84.07;;;;;;;23.73;54.81;103583.34;5033254;28;20041;-60
2022/03/10 01:51:34;;;;;;;152.05;84.72;;;;;;;23.72;54.75;103583.50;5032662;28;20067;-60
2022/03/10 01:54:00;;;;;;;133.55;79.28;;;;;;;23.76;54.61;103584.94;5032874;28;20021;-59
2022/03/10 01:56:26;;;;;;;130.70;77.47;;;;;;;23.79;54.59;103579.16;5032688;28;20022;-60
2022/03/10 01:58:53;;;;;;;128.85;74.40;;;;;;;23.76;54.50;103579.44;5032782;28;20021;-60
2022/03/10 02:01:19;;;;;;;130.63;76.07;;;;;;;23.80;54.83;103584.50;5032428;28;20109;-60
2022/03/10 02:03:45;;;;;;;136.48;80.68;;;;;;;23.78;54.46;103583.78;5032941;28;20025;-59
2022/03/10 02:06:11;;;;;;;136.13;79.40;;;;;;;23.74;54.43;103576.84;5032602;28;20357;-60
2022/03/10 02:11:21;;;;;;;139.57;79.38;;;;;;;23.76;53.86;103576.69;5032271;28;20040;-60
2022/03/10 02:13:47;;;;;;;139.70;79.95;;;;;;;23.77;53.88;103570.19;5032563;28;20388;-60
2022/03/10 02:18:58;;;;;;;138.85;82.25;;;;;;;23.77;53.82;103567.44;5052750;28;20035;-60
2022/03/10 02:21:23;;;;;;;141.82;82.45;;;;;;;23.75;54.17;103566.72;5052051;28;20103;-60
2022/03/10 02:23:49;;;;;;;143.38;80.05;;;;;;;23.79;53.80;103551.69;5051911;28;20033;-60
2022/03/10 02:26:15;;;;;;;130.57;74.97;;;;;;;23.81;53.91;103546.91;5051910;28;20031;-60
2022/03/10 02:28:41;;;;;;;134.77;77.32;;;;;;;23.77;54.04;103539.97;5052214;28;20063;-60
2022/03/10 02:31:06;;;;;;;145.68;84.97;;;;;;;23.75;54.30;103545.63;5050910;28;20115;-60
2022/03/10 02:33:32;;;;;;;133.13;78.32;;;;;;;23.78;53.89;103544.47;5051623;28;20104;-59
2022/03/10 02:35:58;;;;;;;140.85;81.65;;;;;;;23.78;53.33;103544.47;5052217;28;20464;-60
2022/03/10 02:38:24;;;;;;;152.10;86.35;;;;;;;23.78;53.45;103541.72;5051933;28;20025;-60
2022/03/10 02:40:49;;;;;;;133.70;78.47;;;;;;;23.83;53.82;103547.63;5052151;28;20040;-60
2022/03/10 02:43:15;;;;;;;143.68;80.20;;;;;;;23.83;53.43;103548.50;5051794;28;20033;-61
2022/03/10 02:45:41;;;;;;;131.32;74.07;;;;;;;23.86;53.62;103547.38;5051446;28;20037;-60
2022/03/10 02:48:06;;;;;;;132.60;77.43;;;;;;;23.85;53.52;103546.50;5051963;28;20370;-60
2022/03/10 02:50:31;;;;;;;126.25;73.55;;;;;;;23.83;53.41;103544.88;5051830;28;20033;-59
2022/03/10 02:52:57;;;;;;;148.23;83.43;;;;;;;23.78;52.92;103542.56;5051913;28;20036;-60
2022/03/10 02:55:22;;;;;;;130.02;75.38;;;;;;;23.82;53.18;103545.91;5051562;28;20055;-59
2022/03/10 02:57:49;;;;;;;132.40;78.03;;;;;;;23.81;53.47;103544.16;5051840;28;20025;-60
2022/03/10 03:00:15;;;;;;;135.50;80.78;;;;;;;23.78;53.73;103547.22;5050376;28;20024;-61
2022/03/10 03:02:41;;;;;;;123.78;74.38;;;;;;;23.82;53.80;103545.91;5051875;28;20070;-60
2022/03/10 03:05:08;;;;;;;136.02;78.93;;;;;;;23.82;52.72;103548.66;5051746;28;20029;-61
2022/03/10 03:07:34;;;;;;;138.95;80.75;;;;;;;23.80;52.80;103548.78;5051429;28;20025;-60
2022/03/10 03:10:00;;;;;;;134.85;76.70;;;;;;;23.87;53.03;103546.34;5051027;28;20036;-60
2022/03/10 03:12:25;;;;;;;130.20;76.53;;;;;;;23.83;52.91;103544.88;5054291;28;20479;-60
2022/03/10 03:14:51;;;;;;;141.55;82.93;;;;;;;23.85;53.02;103551.09;5055296;28;20027;-60
2022/03/10 03:17:16;;;;;;;135.38;78.53;;;;;;;23.81;52.91;103534.03;5055485;28;20043;-61
2022/03/10 03:19:42;;;;;;;126.03;72.97;;;;;;;23.76;53.12;103546.47;5055528;28;20071;-60
2022/03/10 03:22:08;;;;;;;126.20;74.35;;;;;;;23.85;53.06;103551.09;5054413;28;20379;-60
2022/03/10 03:24:33;;;;;;;138.57;80.03;;;;;;;23.85;52.80;103548.34;5055100;28;20047;-60
2022/03/10 03:26:59;;;;;;;128.88;75.47;;;;;;;23.84;52.77;103549.38;5055463;28;20087;-60
2022/03/10 03:29:24;;;;;;;129.18;74.65;;;;;;;23.78;52.89;103547.22;5054995;28;20388;-60
2022/03/10 03:31:49;;;;;;;135.35;79.50;;;;;;;23.80;52.54;103546.03;5055414;28;20021;-60
2022/03/10 03:34:15;;;;;;;142.73;81.65;;;;;;;23.80;52.82;103540.56;5055152;28;20464;-61
2022/03/10 03:36:42;;;;;;;130.82;77.38;;;;;;;23.85;53.03;103537.38;5055459;28;20376;-60
2022/03/10 03:39:08;;;;;;;135.93;78.93;;;;;;;23.81;52.96;103534.03;5055250;28;20031;-61
2022/03/10 03:41:34;;;;;;;122.30;77.32;;;;;;;23.83;52.78;103531.16;5054802;28;20035;-60
2022/03/10 03:43:59;;;;;;;121.75;72.93;;;;;;;23.84;52.77;103541.13;5054807;28;20376;-60
2022/03/10 03:46:25;;;;;;;126.72;75.75;;;;;;;23.81;51.93;103533.19;5054772;28;20135;-61
2022/03/10 03:48:51;;;;;;;128.95;76.65;;;;;;;23.85;52.63;103540.13;5055061;28;20400;-60
2022/03/10 03:51:16;;;;;;;129.50;72.65;;;;;;;23.85;52.49;103537.38;5054781;28;20090;-60
2022/03/10 03:53:41;;;;;;;137.38;78.05;;;;;;;23.83;52.48;103542.13;5053395;28;20029;-59
2022/03/10 03:56:06;;;;;;;119.57;69.57;;;;;;;23.90;52.76;103546.06;5055133;28;20020;-60
2022/03/10 03:58:32;;;;;;;134.05;76.47;;;;;;;23.82;52.37;103535.78;5054299;28;20433;-60
2022/03/10 04:00:57;;;;;;;142.48;83.85;;;;;;;23.87;52.44;103549.97;5053406;28;20032;-60
2022/03/10 04:03:22;;;;;;;129.77;74.75;;;;;;;23.88;52.37;103550.84;5053026;28;20029;-60
2022/03/10 04:05:48;;;;;;;125.57;75.80;;;;;;;23.82;52.40;103543.16;5055048;28;20067;-60
2022/03/10 04:08:14;;;;;;;129.65;75.88;;;;;;;23.80;52.64;103546.03;5053242;28;20475;-61
2022/03/10 04:10:39;;;;;;;127.55;74.40;;;;;;;23.88;52.22;103529.72;5054662;28;20029;-60
2022/03/10 04:13:05;;;;;;;131.15;76.07;;;;;;;23.86;52.01;103509.78;5054627;28;20695;-60
2022/03/10 04:15:32;;;;;;;143.13;78.18;;;;;;;23.86;52.48;103509.78;5052856;28;20028;-60
2022/03/10 04:17:58;;;;;;;129.10;74.53;;;;;;;23.84;51.83;103505.41;5054564;28;20060;-60
2022/03/10 04:20:23;;;;;;;122.13;70.88;;;;;;;23.82;52.39;103507.44;5054236;28;20110;-60
2022/03/10 04:22:48;;;;;;;127.43;74.43;;;;;;;23.88;52.40;103512.38;5053117;28;20044;-60
2022/03/10 04:25:14;;;;;;;121.65;72.28;;;;;;;23.87;52.54;103505.16;5053973;28;20039;-59
2022/03/10 04:27:40;;;;;;;122.97;71.57;;;;;;;23.94;52.66;103520.03;5054086;28;20033;-60
2022/03/10 04:30:06;;;;;;;121.47;70.65;;;;;;;23.86;51.68;103515.28;5054163;28;20024;-61
2022/03/10 04:32:40;;;;;;;114.20;66.45;;;;;;;23.92;51.67;103513.81;5053918;28;20024;-60
2022/03/10 04:35:06;;;;;;;118.50;67.80;;;;;;;23.90;52.30;103515.84;5054093;28;20020;-60
2022/03/10 04:37:31;;;;;;;130.57;74.80;;;;;;;23.85;51.85;103524.53;5054041;28;20100;-60
2022/03/10 04:39:56;;;;;;;134.25;76.03;;;;;;;23.80;52.27;103528.69;5054175;28;20441;-60
2022/03/10 04:42:21;;;;;;;117.78;68.63;;;;;;;23.86;52.14;103525.41;5052409;28;20032;-59
2022/03/10 04:44:47;;;;;;;127.22;71.95;;;;;;;23.87;51.65;103536.25;5052356;28;20033;-59
2022/03/10 04:47:12;;;;;;;124.18;69.03;;;;;;;23.85;51.84;103532.78;5053633;28;20024;-60
2022/03/10 04:49:37;;;;;;;118.45;66.45;;;;;;;23.86;51.36;103530.88;5052500;28;20029;-61
2022/03/10 04:52:03;;;;;;;117.72;67.63;;;;;;;23.83;51.34;103537.50;5053968;28;20399;-61
2022/03/10 04:54:28;;;;;;;123.43;72.00;;;;;;;23.88;51.98;103543.47;5053665;28;20021;-60
2022/03/10 04:56:53;;;;;;;116.63;67.07;;;;;;;23.86;52.07;103536.38;5052557;28;20467;-60
2022/03/10 04:59:19;;;;;;;134.55;73.28;;;;;;;23.82;51.50;103540.41;5053491;28;20025;-60
2022/03/10 05:01:44;;;;;;;119.22;67.88;;;;;;;23.90;51.47;103543.31;5053911;28;20025;-60
2022/03/10 05:04:09;;;;;;;121.43;72.55;;;;;;;24.16;50.77;103544.47;5053497;28;20380;-60
2022/03/10 05:06:34;;;;;;;122.30;70.13;;;;;;;24.13;50.70;103531.00;5053450;28;20155;-60
2022/03/10 05:09:00;;;;;;;113.75;65.57;;;;;;;24.20;50.42;103532.19;5053517;28;20020;-59
2022/03/10 05:11:25;;;;;;;120.35;67.00;;;;;;;24.23;49.85;103545.63;5052809;28;20040;-60
2022/03/10 05:13:50;;;;;;;117.57;68.32;;;;;;;24.31;50.04;103542.16;5051830;28;20075;-60
2022/03/10 05:16:15;;;;;;;115.85;68.85;;;;;;;24.29;49.97;103535.94;5053065;28;20040;-61
2022/03/10 05:18:41;;;;;;;112.05;66.18;;;;;;;24.32;50.01;103534.78;5053330;28;20070;-60
2022/03/10 05:21:06;;;;;;;113.20;64.88;;;;;;;24.43;49.66;103540.13;5053349;28;20032;-62
2022/03/10 05:23:31;;;;;;;109.38;65.82;;;;;;;24.43;49.15;103540.13;5052927;28;20464;-61
2022/03/10 05:25:57;;;;;;;117.50;66.85;;;;;;;24.50;49.59;103544.03;5053290;28;20025;-61
2022/03/10 05:28:22;;;;;;;105.70;63.85;;;;;;;24.42;49.72;103538.41;5052967;28;20453;-60
2022/03/10 05:30:48;;;;;;;106.47;62.35;;;;;;;24.49;48.77;103528.53;5053191;28;20017;-61
2022/03/10 05:33:13;;;;;;;94.45;59.95;;;;;;;24.63;49.99;103530.81;5052622;28;20025;-61
2022/03/10 05:35:39;;;;;;;103.22;60.55;;;;;;;24.55;49.10;103527.97;5052940;28;20074;-61
2022/03/10 05:38:05;;;;;;;101.88;62.30;;;;;;;24.53;48.98;103538.25;5053082;28;20057;-60
2022/03/10 05:40:31;;;;;;;98.07;58.67;;;;;;;24.53;48.88;103541.00;5052889;28;20413;-60
2022/03/10 05:42:57;;;;;;;103.82;60.17;;;;;;;24.50;49.47;103541.25;5052738;28;20035;-59
2022/03/10 05:45:23;;;;;;;92.47;56.55;;;;;;;24.58;49.75;103545.03;5052441;28;20400;-60
2022/03/10 05:47:58;;;;;;;94.13;55.55;;;;;;;24.57;49.12;103553.44;5052660;28;20067;-60
2022/03/10 05:50:25;;;;;;;94.43;55.60;;;;;;;24.61;48.12;103549.34;5052635;28;20104;-59
2022/03/10 05:52:50;;;;;;;90.55;53.97;;;;;;;24.63;48.89;103557.47;5052727;28;20032;-60
2022/03/10 05:55:17;;;;;;;90.72;55.35;;;;;;;24.65;48.96;103542.53;5052363;28;20043;-61
2022/03/10 05:57:42;;;;;;;90.00;52.92;;;;;;;24.68;47.93;103544.13;5052880;28;20105;-60
2022/03/10 06:00:10;;;;;;;84.95;52.17;;;;;;;24.63;49.01;103547.31;5052586;28;20052;-60
2022/03/10 06:02:36;;;;;;;90.10;54.15;;;;;;;24.65;48.43;103537.03;5052295;28;20066;-60
2022/03/10 06:05:03;;;;;;;93.45;54.13;;;;;;;24.70;49.62;103520.97;5052438;28;20103;-60
2022/03/10 06:07:28;;;;;;;98.28;56.20;;;;;;;24.67;48.29;103526.75;5050777;28;20025;-60
2022/03/10 06:09:55;;;;;;;105.35;57.95;;;;;;;24.62;48.74;103528.22;5052419;28;20039;-61
2022/03/10 06:12:25;;;;;;;100.47;55.95;;;;;;;24.64;48.24;103532.56;5051952;28;20052;-60
2022/03/10 06:14:54;;;;;;;88.90;53.45;;;;;;;24.66;48.23;103525.00;5052412;28;20024;-60
2022/03/10 06:17:20;;;;;;;93.10;54.63;;;;;;;24.73;48.53;103533.56;5052012;28;20033;-60
2022/03/10 06:19:46;;;;;;;93.43;56.97;;;;;;;24.66;48.50;103541.53;5052346;28;20028;-60
2022/03/10 06:22:15;;;;;;;90.60;54.20;;;;;;;24.68;48.26;103528.47;5052162;28;20028;-61
2022/03/10 06:24:41;;;;;;;94.15;54.60;;;;;;;24.79;47.79;103536.56;5052560;28;20033;-60
2022/03/10 06:27:06;;;;;;;91.97;53.40;;;;;;;24.83;48.67;103543.50;5050971;28;20525;-61
2022/03/10 06:29:31;;;;;;;91.53;54.17;;;;;;;24.74;47.97;103544.41;5051845;28;20025;-60
2022/03/10 06:31:56;;;;;;;87.05;52.35;;;;;;;24.78;48.21;103556.84;5052338;28;20033;-61
2022/03/10 06:34:22;;;;;;;90.97;52.78;;;;;;;24.70;48.50;103553.13;5051959;28;20045;-60
2022/03/10 06:36:48;;;;;;;93.63;55.08;;;;;;;24.74;47.90;103554.53;5052228;28;20025;-61
2022/03/10 06:39:13;;;;;;;82.07;50.60;;;;;;;24.92;48.43;103562.88;5051987;28;20545;-60
2022/03/10 06:41:39;;;;;;;88.53;51.90;;;;;;;24.83;47.97;103570.13;5051465;28;20076;-61
2022/03/10 06:44:05;;;;;;;86.78;51.28;;;;;;;24.76;48.54;103558.88;5051933;28;20025;-60
2022/03/10 06:46:30;;;;;;;86.43;50.92;;;;;;;24.76;48.14;103558.88;5055288;28;20066;-60
2022/03/10 06:48:55;;;;;;;90.22;53.03;;;;;;;24.74;47.82;103558.16;5055999;28;20086;-59
2022/03/10 06:51:21;;;;;;;92.03;53.35;;;;;;;24.71;48.25;103555.72;5055812;28;20035;-60
2022/03/10 06:53:46;;;;;;;89.10;55.35;;;;;;;24.76;47.94;103553.38;5056490;28;20028;-60
2022/03/10 06:56:11;;;;;;;95.53;53.13;;;;;;;24.81;48.22;103566.69;5055823;28;20078;-60
2022/03/10 06:58:37;;;;;;;90.95;53.35;;;;;;;24.75;47.94;103559.91;5055905;28;20043;-59
2022/03/10 07:01:03;;;;;;;92.53;54.10;;;;;;;24.71;47.63;103560.34;5055874;28;20112;-60
2022/03/10 07:03:28;;;;;;;90.43;51.83;;;;;;;24.76;47.54;103567.13;5055767;28;20044;-60
2022/03/10 07:05:53;;;;;;;87.03;51.80;;;;;;;24.99;47.65;103564.88;5055906;28;20017;-59
2022/03/10 07:08:19;;;;;;;91.15;50.85;;;;;;;24.89;48.19;103561.31;5055690;28;20029;-60
2022/03/10 07:10:44;;;;;;;90.65;51.97;;;;;;;24.77;47.39;103559.75;5055593;28;20029;-60
2022/03/10 07:13:09;;;;;;;85.35;49.35;;;;;;;24.76;47.62;103558.88;5055582;28;20055;-60
2022/03/10 07:15:34;;;;;;;80.47;49.90;;;;;;;24.76;47.95;103558.88;5055507;28;20017;-60
2022/03/10 07:18:00;;;;;;;85.50;50.42;;;;;;;24.78;48.34;103553.22;5055663;28;20084;-61
2022/03/10 07:20:25;;;;;;;89.97;51.13;;;;;;;24.83;48.10;103548.13;5055240;28;20029;-60
2022/03/10 07:22:50;;;;;;;90.40;51.42;;;;;;;24.73;47.62;103548.19;5055811;28;20484;-61
2022/03/10 07:25:16;;;;;;;82.40;50.13;;;;;;;24.84;47.74;103549.84;5055178;28;20361;-60
2022/03/10 07:27:42;;;;;;;80.20;47.97;;;;;;;24.86;47.25;103553.34;5055306;28;20103;-60
2022/03/10 07:30:08;;;;;;;88.38;52.33;;;;;;;24.85;47.53;103551.59;5055417;28;20159;-60
2022/03/10 07:32:33;;;;;;;80.68;47.95;;;;;;;24.88;47.42;103556.81;5055531;28;20236;-60
2022/03/10 07:35:00;;;;;;;88.28;51.30;;;;;;;24.83;47.63;103554.50;5055443;28;20508;-60
2022/03/10 07:37:25;;;;;;;86.45;51.67;;;;;;;24.94;47.90;103567.22;5054970;28;20365;-60
2022/03/10 07:39:51;;;;;;;85.68;51.28;;;;;;;24.86;47.92;103567.97;5055333;28;20036;-60
2022/03/10 07:42:16;;;;;;;86.70;49.97;;;;;;;24.90;47.24;103561.16;5054723;28;20096;-60
2022/03/10 07:44:42;;;;;;;87.75;51.42;;;;;;;24.87;47.92;103569.72;5054963;28;20038;-60
2022/03/10 07:47:07;;;;;;;85.05;50.17;;;;;;;24.89;47.55;103562.19;5054907;28;20092;-60
2022/03/10 07:49:32;;;;;;;80.40;50.22;;;;;;;24.82;47.67;103560.16;5054487;28;20194;-61
2022/03/10 07:51:59;;;;;;;89.88;51.60;;;;;;;25.00;48.56;103560.28;5054950;28;20036;-60
2022/03/10 07:54:25;;;;;;;85.40;50.83;;;;;;;24.94;47.13;103555.34;5053346;28;20029;-61
2022/03/10 07:56:50;;;;;;;87.38;52.13;;;;;;;24.85;47.59;103557.97;5054637;28;20035;-60
2022/03/10 07:59:16;;;;;;;85.32;50.03;;;;;;;24.86;47.73;103556.13;5053378;28;20044;-60
2022/03/10 08:01:41;;;;;;;85.10;48.78;;;;;;;24.87;47.44;103561.47;5054546;28;20107;-60
2022/03/10 08:04:06;;;;;;;78.13;47.80;;;;;;;25.05;47.70;103553.31;5054587;28;20024;-60
2022/03/10 08:06:32;;;;;;;81.97;47.28;;;;;;;25.07;47.44;103555.91;5054472;28;20025;-61
2022/03/10 08:08:58;;;;;;;77.25;47.53;;;;;;;24.98;47.03;103556.78;5054766;28;20025;-61
2022/03/10 08:11:24;;;;;;;82.00;46.72;;;;;;;24.96;47.73;103558.81;5053940;28;20036;-60
2022/03/10 08:13:50;;;;;;;88.95;50.75;;;;;;;24.92;47.65;103562.88;5054725;28;20029;-60
2022/03/10 08:16:15;;;;;;;87.35;51.08;;;;;;;24.86;47.13;103556.97;5054562;28;20301;-62
2022/03/10 08:18:40;;;;;;;87.07;50.45;;;;;;;24.85;47.54;103563.47;5054326;28;20021;-60
2022/03/10 08:21:06;;;;;;;86.47;50.38;;;;;;;24.87;46.96;103555.09;5054705;28;20108;-60
2022/03/10 08:23:31;;;;;;;80.32;48.05;;;;;;;24.98;46.98;103554.00;5054172;28;20385;-60
2022/03/10 08:25:57;;;;;;;84.25;51.05;;;;;;;24.95;47.05;103546.06;5054380;28;20020;-59
2022/03/10 08:28:22;;;;;;;86.18;51.15;;;;;;;25.00;46.95;103549.25;5054082;28;20380;-59
2022/03/10 08:30:48;;;;;;;79.75;47.90;;;;;;;24.99;47.11;103547.50;5054318;28;20036;-60
2022/03/10 08:33:13;;;;;;;85.10;49.40;;;;;;;24.89;46.97;103550.31;5054187;28;20024;-61
2022/03/10 08:35:38;;;;;;;85.75;50.42;;;;;;;24.88;47.90;103546.69;5054131;28;20428;-59
2022/03/10 08:38:04;;;;;;;87.93;51.85;;;;;;;24.94;47.17;103547.09;5054317;28;20032;-60
2022/03/10 08:40:29;;;;;;;80.05;48.55;;;;;;;24.97;47.28;103544.03;5053705;28;20383;-61
2022/03/10 08:42:55;;;;;;;86.60;50.25;;;;;;;24.92;47.80;103557.38;5054029;28;20021;-60
2022/03/10 08:45:25;;;;;;;87.20;51.63;;;;;;;24.87;47.27;103555.97;5052296;28;20498;-61
2022/03/10 08:47:51;;;;;;;81.13;48.13;;;;;;;25.05;47.52;103553.31;5053701;28;20120;-60
2022/03/10 08:50:16;;;;;;;89.32;51.63;;;;;;;24.99;47.17;103558.50;5053644;28;20112;-60
2022/03/10 08:52:41;;;;;;;81.15;49.15;;;;;;;24.94;46.73;103561.72;5053899;28;20027;-60
2022/03/10 08:55:07;;;;;;;83.50;48.83;;;;;;;25.02;47.64;103564.59;5054197;28;20048;-59
2022/03/10 08:57:33;;;;;;;80.25;48.45;;;;;;;24.97;47.06;103555.03;5053454;28;20033;-60
2022/03/10 08:59:58;;;;;;;84.18;49.88;;;;;;;24.92;47.50;103557.38;5053771;28;20543;-60
2022/03/10 09:02:24;;;;;;;87.00;50.03;;;;;;;24.98;47.66;103545.75;5053422;28;20031;-61
2022/03/10 09:04:50;;;;;;;85.78;50.60;;;;;;;24.95;47.45;103543.31;5053529;28;20032;-60
2022/03/10 09:07:15;;;;;;;89.53;51.28;;;;;;;24.89;47.36;103529.16;5053078;28;20040;-60
2022/03/10 09:09:40;;;;;;;85.15;50.08;;;;;;;24.95;47.27;103535.06;5052864;28;20037;-60
2022/03/10 09:12:06;;;;;;;84.45;49.20;;;;;;;24.93;46.85;103532.47;5051951;28;20079;-60
2022/03/10 09:14:31;;;;;;;78.75;49.22;;;;;;;25.08;47.26;103542.00;5053540;28;20422;-60
2022/03/10 09:16:57;;;;;;;79.50;47.38;;;;;;;25.09;47.03;103542.84;5053508;28;20523;-61
2022/03/10 09:19:23;;;;;;;79.45;46.55;;;;;;;24.99;47.34;103547.50;5053042;28;20025;-60
2022/03/10 09:21:48;;;;;;;78.18;48.72;;;;;;;25.00;46.20;103538.25;5053401;28;20021;-60
2022/03/10 09:24:14;;;;;;;76.22;46.15;;;;;;;24.94;47.27;103544.34;5053018;28;20048;-60
2022/03/10 09:26:39;;;;;;;79.57;47.35;;;;;;;24.94;47.37;103538.84;5053174;28;20032;-60
2022/03/10 09:29:05;;;;;;;82.90;47.55;;;;;;;24.94;47.51;103538.84;5053170;28;20075;-61
2022/03/10 09:31:31;;;;;;;78.82;47.95;;;;;;;24.98;46.90;103545.75;5052105;28;20476;-60
2022/03/10 09:33:57;;;;;;;74.82;46.85;;;;;;;24.96;47.32;103542.28;5051853;28;20115;-60
2022/03/10 09:36:22;;;;;;;80.05;46.80;;;;;;;24.97;46.88;103544.03;5051825;28;20370;-60
2022/03/10 09:38:48;;;;;;;87.32;51.13;;;;;;;25.00;48.43;103538.25;5052956;28;20464;-60
2022/03/10 09:41:13;;;;;;;87.82;49.10;;;;;;;25.00;47.26;103541.00;5052354;28;20025;-60
2022/03/10 09:43:39;;;;;;;86.93;50.80;;;;;;;24.94;47.22;103539.69;5052848;28;20033;-61
2022/03/10 09:46:08;;;;;;;87.57;50.38;;;;;;;24.94;47.76;103544.34;5052946;28;20029;-60
2022/03/10 09:48:35;;;;;;;84.38;50.58;;;;;;;25.00;47.80;103543.75;5052440;28;20091;-60
2022/03/10 09:51:00;;;;;;;81.30;47.10;;;;;;;25.14;47.32;103546.00;5052844;28;20090;-60
2022/03/10 09:53:25;;;;;;;80.78;46.78;;;;;;;24.99;47.18;103551.13;5052684;28;20487;-60
2022/03/10 09:55:51;;;;;;;85.15;48.80;;;;;;;24.96;46.44;103553.31;5052762;28;20160;-60
2022/03/10 09:58:16;;;;;;;80.80;48.95;;;;;;;25.03;48.03;103557.25;5052899;28;20044;-61
2022/03/10 10:00:41;;;;;;;81.55;48.50;;;;;;;25.02;46.84;103558.22;5052560;28;20456;-59
2022/03/10 10:03:07;;;;;;;79.68;48.25;;;;;;;25.02;47.88;103556.34;5052566;28;20035;-61
2022/03/10 10:05:38;;;;;;;81.60;46.58;;;;;;;24.98;46.84;103554.00;5052096;28;20106;-60
2022/03/10 10:08:17;;;;;;;86.22;51.10;;;;;;;24.93;47.10;103553.63;5052525;28;20059;-60
2022/03/10 10:10:51;;;;;;;88.45;50.42;;;;;;;24.99;46.86;103547.50;5050923;28;20037;-61
2022/03/10 10:13:30;;;;;;;81.22;48.63;;;;;;;25.03;46.95;103554.50;5052139;28;20048;-61
2022/03/10 10:16:03;;;;;;;84.15;48.42;;;;;;;24.93;47.50;103559.97;5052361;28;20036;-61
2022/03/10 10:18:30;;;;;;;85.53;48.57;;;;;;;24.96;47.09;103556.91;5052292;28;20307;-62
2022/03/10 10:20:56;;;;;;;83.75;49.72;;;;;;;24.99;47.46;103559.38;5052378;28;20245;-60
2022/03/10 10:23:29;;;;;;;85.75;50.67;;;;;;;24.93;46.52;103548.09;5052093;28;20380;-60
2022/03/10 10:26:02;;;;;;;86.83;50.30;;;;;;;25.01;47.44;103553.75;5052319;28;20055;-60
2022/03/10 10:28:35;;;;;;;85.78;51.00;;;;;;;24.94;47.15;103544.34;5051852;28;20281;-61
2022/03/10 10:31:05;;;;;;;82.47;50.28;;;;;;;25.01;46.61;103548.25;5052316;28;20108;-59
2022/03/10 10:33:33;;;;;;;81.95;49.67;;;;;;;24.99;47.59;103548.34;5051781;28;20037;-59
2022/03/10 10:36:14;;;;;;;86.68;50.08;;;;;;;25.06;47.55;103559.69;5052281;28;20418;-59
2022/03/10 10:38:42;;;;;;;78.72;47.10;;;;;;;25.05;46.82;103558.81;5052193;28;20033;-60
2022/03/10 10:41:25;;;;;;;77.25;45.50;;;;;;;25.01;46.62;103557.38;5052107;28;20029;-61
2022/03/10 10:43:53;;;;;;;80.68;47.60;;;;;;;25.01;47.46;103568.38;5052034;28;20031;-60
2022/03/10 10:46:24;;;;;;;89.60;50.40;;;;;;;25.01;46.08;103571.13;5052054;28;20044;-60
2022/03/10 10:48:50;;;;;;;78.88;46.08;;;;;;;25.05;47.32;103563.47;5051863;28;20418;-60
2022/03/10 10:51:29;;;;;;;81.80;49.78;;;;;;;25.02;47.13;103563.72;5051867;28;20033;-62
2022/03/10 10:53:55;;;;;;;87.28;50.88;;;;;;;25.00;46.39;103572.16;5051895;28;20023;-61
2022/03/10 10:56:22;;;;;;;82.18;48.30;;;;;;;25.01;46.89;103556.50;5051789;28;20407;-60
2022/03/10 10:58:47;;;;;;;83.38;49.97;;;;;;;25.11;46.29;103557.34;5051953;28;20025;-61
2022/03/10 11:01:34;;;;;;;87.57;51.45;;;;;;;25.08;46.68;103563.16;5051720;28;20436;-61
2022/03/10 11:04:00;;;;;;;83.53;47.53;;;;;;;25.07;46.61;103566.91;5052067;28;20033;-59
2022/03/10 11:06:25;;;;;;;83.25;47.20;;;;;;;25.12;47.11;103572.81;5051542;28;20502;-60